Time;durP1;ratioP1;P1;durP2;ratioP2;P2;SDS_P1;SDS_P2;PMS_P1;PMS_P2;Temp;Humidity;BMP_temperature;BMP_pressure;BME280_temperature;BME280_humidity;BME280_pressure;Samples;Min_cycle;Max_cycle;Signal;HPM_P1;HPM_P2
2022/10/23 00:02:30;;;;;;;;;;;;;;;;;;4978570;28;19926;-87
2022/10/23 00:04:58;;;;;;;;;;;;;;;;;;4971604;28;20278;-88
2022/10/23 00:07:25;;;;;;;;;;;;;;;;;;4975691;28;19926;-86
2022/10/23 00:09:53;;;;;;;;;;;;;;;;;;4987249;28;19933;-86
2022/10/23 00:12:26;;;;;;;;;;;;;;;;;;4973413;28;19926;-88
2022/10/23 00:14:54;;;;;;;;;;;;;;;;;;4971421;28;19926;-87
2022/10/23 00:17:27;;;;;;;;;;;;;;;;;;4971699;28;19929;-89
2022/10/23 00:19:54;;;;;;;;;;;;;;;;;;4972485;28;20283;-87
2022/10/23 00:22:21;;;;;;;;;;;;;;;;;;4971422;28;19949;-89
2022/10/23 00:24:49;;;;;;;;;;;;;;;;;;4973352;28;20590;-88
2022/10/23 00:27:21;;;;;;;;;;;;;;;;;;4968569;28;19929;-86
2022/10/23 00:29:49;;;;;;;;;;;;;;;;;;4971107;28;19926;-87
2022/10/23 00:32:16;;;;;;;;;;;;;;;;;;4991016;28;20417;-88
2022/10/23 00:34:49;;;;;;;;;;;;;;;;;;4970737;28;19926;-87
2022/10/23 00:37:16;;;;;;;;;;;;;;;;;;4983510;28;19929;-86
2022/10/23 00:39:44;;;;;;;;;;;;;;;;;;4971951;28;20166;-89
2022/10/23 00:42:11;;;;;;;;;;;;;;;;;;4973925;28;20382;-88
2022/10/23 00:44:39;;;;;;;;;;;;;;;;;;4982824;28;20287;-88
2022/10/23 00:47:12;;;;;;;;;;;;;;;;;;4972202;28;19922;-87
2022/10/23 00:49:44;;;;;;;;;;;;;;;;;;4972365;28;19927;-87
2022/10/23 00:52:17;;;;;;;;;;;;;;;;;;4970662;28;19930;-88
2022/10/23 00:54:44;;;;;;;;;;;;;;;;;;4985702;28;19934;-86
2022/10/23 00:57:16;;;;;;;;;;;;;;;;;;4989081;28;19921;-87
2022/10/23 00:59:44;;;;;;;;;;;;;;;;;;4987128;28;19930;-88
2022/10/23 01:02:17;;;;;;;;;;;;;;;;;;4974232;28;19929;-87
2022/10/23 01:04:49;;;;;;;;;;;;;;;;;;4972156;28;19926;-86
2022/10/23 01:07:17;;;;;;;;;;;;;;;;;;4973768;28;19922;-87
2022/10/23 01:09:44;;;;;;;;;;;;;;;;;;4978619;28;19926;-86
2022/10/23 01:12:12;;;;;;;;;;;;;;;;;;4970233;28;19929;-86
2022/10/23 01:14:39;;;;;;;;;;;;;;;;;;4984664;28;19926;-85
2022/10/23 01:17:07;;;;;;;;;;;;;;;;;;4971749;28;19922;-87
2022/10/23 01:19:41;;;;;;;;;;;;;;;;;;4983759;28;19926;-88
2022/10/23 01:22:14;;;;;;;;;;;;;;;;;;4984660;28;19926;-88
2022/10/23 01:24:46;;;;;;;;;;;;;;;;;;4970870;28;20289;-87
2022/10/23 01:27:14;;;;;;;;;;;;;;;;;;4972496;28;19926;-86
2022/10/23 01:29:46;;;;;;;;;;;;;;;;;;4965953;28;19926;-87
2022/10/23 01:32:23;;;;;;;;;;;;;;;;;;4976896;28;20302;-85
2022/10/23 01:34:56;;;;;;;;;;;;;;;;;;4969906;28;19933;-86
2022/10/23 01:37:24;;;;;;;;;;;;;;;;;;4964802;28;19949;-87
2022/10/23 01:39:59;;;;;;;;;;;;;;;;;;4983535;28;20218;-86
2022/10/23 01:42:32;;;;;;;;;;;;;;;;;;4970041;28;20386;-86
2022/10/23 01:45:00;;;;;;;;;;;;;;;;;;4969427;28;19926;-86
2022/10/23 01:47:35;;;;;;;;;;;;;;;;;;4965955;28;19933;-87
2022/10/23 01:50:05;;;;;;;;;;;;;;;;;;4970511;28;19926;-88
2022/10/23 01:52:33;;;;;;;;;;;;;;;;;;4967026;28;19929;-86
2022/10/23 01:55:02;;;;;;;;;;;;;;;;;;4972236;28;19929;-86
2022/10/23 01:57:32;;;;;;;;;;;;;;;;;;4971044;28;20222;-87
2022/10/23 02:00:00;;;;;;;;;;;;;;;;;;4971689;28;19922;-87
2022/10/23 02:02:28;;;;;;;;;;;;;;;;;;4971328;28;19937;-87
2022/10/23 02:04:56;;;;;;;;;;;;;;;;;;4969627;28;19956;-86
2022/10/23 02:07:28;;;;;;;;;;;;;;;;;;4971952;28;19929;-88
2022/10/23 02:10:01;;;;;;;;;;;;;;;;;;4970748;28;19926;-88
2022/10/23 02:12:29;;;;;;;;;;;;;;;;;;4970784;28;20398;-88
2022/10/23 02:15:01;;;;;;;;;;;;;;;;;;4969116;28;20391;-87
2022/10/23 02:17:34;;;;;;;;;;;;;;;;;;4970219;28;20331;-87
2022/10/23 02:20:07;;;;;;;;;;;;;;;;;;4989983;28;19929;-87
2022/10/23 02:22:39;;;;;;;;;;;;;;;;;;4970135;28;19926;-86
2022/10/23 02:25:07;;;;;;;;;;;;;;;;;;4969591;28;19932;-87
2022/10/23 02:27:34;;;;;;;;;;;;;;;;;;4974797;28;20391;-85
2022/10/23 02:30:07;;;;;;;;;;;;;;;;;;4976690;28;20260;-88
2022/10/23 02:32:35;;;;;;;;;;;;;;;;;;4995472;28;19930;-86
2022/10/23 02:35:07;;;;;;;;;;;;;;;;;;4978946;28;20016;-87
2022/10/23 02:37:40;;;;;;;;;;;;;;;;;;4977785;28;20337;-86
2022/10/23 02:40:07;;;;;;;;;;;;;;;;;;4976997;28;20306;-86
2022/10/23 02:42:41;;;;;;;;;;;;;;;;;;4975346;28;19922;-87
2022/10/23 02:45:09;;;;;;;;;;;;;;;;;;4975669;28;19929;-87
2022/10/23 02:47:36;;;;;;;;;;;;;;;;;;4992223;28;20378;-86
2022/10/23 02:50:09;;;;;;;;;;;;;;;;;;4975915;28;20291;-86
2022/10/23 02:52:44;;;;;;;;;;;;;;;;;;4976357;28;19925;-88
2022/10/23 02:55:11;;;;;;;;;;;;;;;;;;4978075;28;19925;-86
2022/10/23 02:57:47;;;;;;;;;;;;;;;;;;4989635;28;19922;-86
2022/10/23 03:00:21;;;;;;;;;;;;;;;;;;4991673;28;19933;-87
2022/10/23 03:02:54;;;;;;;;;;;;;;;;;;4978535;28;20314;-85
2022/10/23 03:05:21;;;;;;;;;;;;;;;;;;4975691;28;19933;-86
2022/10/23 03:07:54;;;;;;;;;;;;;;;;;;4973055;28;19929;-86
2022/10/23 03:10:21;;;;;;;;;;;;;;;;;;4976063;28;19945;-86
2022/10/23 03:12:54;;;;;;;;;;;;;;;;;;4976636;28;19929;-85
2022/10/23 03:15:31;;;;;;;;;;;;;;;;;;4960298;28;19928;-84
2022/10/23 03:17:59;;;;;;;;;;;;;;;;;;4975551;28;19929;-86
2022/10/23 03:20:33;;;;;;;;;;;;;;;;;;4988860;28;20306;-85
2022/10/23 03:23:00;;;;;;;;;;;;;;;;;;4975489;28;20314;-86
2022/10/23 03:25:28;;;;;;;;;;;;;;;;;;4975667;28;20514;-84
2022/10/23 03:27:57;;;;;;;;;;;;;;;;;;4975429;28;19933;-85
2022/10/23 03:30:25;;;;;;;;;;;;;;;;;;4968624;28;20383;-86
2022/10/23 03:32:54;;;;;;;;;;;;;;;;;;4982266;28;19922;-85
2022/10/23 03:35:27;;;;;;;;;;;;;;;;;;4975807;28;20387;-85
2022/10/23 03:37:54;;;;;;;;;;;;;;;;;;4973259;28;20114;-86
2022/10/23 03:40:24;;;;;;;;;;;;;;;;;;4973219;28;19922;-86
2022/10/23 03:42:52;;;;;;;;;;;;;;;;;;4971739;28;19926;-86
2022/10/23 03:45:24;;;;;;;;;;;;;;;;;;4971146;28;19922;-85
2022/10/23 03:47:52;;;;;;;;;;;;;;;;;;4987747;28;20458;-85
2022/10/23 03:50:20;;;;;;;;;;;;;;;;;;4989163;28;19925;-86
2022/10/23 03:52:47;;;;;;;;;;;;;;;;;;4971919;28;19950;-85
2022/10/23 03:55:15;;;;;;;;;;;;;;;;;;4972504;28;19933;-85
2022/10/23 03:57:42;;;;;;;;;;;;;;;;;;4988506;28;19933;-85
2022/10/23 04:00:10;;;;;;;;;;;;;;;;;;4974094;28;19925;-84
2022/10/23 04:02:43;;;;;;;;;;;;;;;;;;4970620;28;19937;-86
2022/10/23 04:05:16;;;;;;;;;;;;;;;;;;4971587;28;19937;-86
2022/10/23 04:07:52;;;;;;;;;;;;;;;;;;4971560;28;20276;-84
2022/10/23 04:10:20;;;;;;;;;;;;;;;;;;4971837;28;20314;-87
2022/10/23 04:12:52;;;;;;;;;;;;;;;;;;4970102;28;19945;-86
2022/10/23 04:15:20;;;;;;;;;;;;;;;;;;4966996;28;19930;-87
2022/10/23 04:17:47;;;;;;;;;;;;;;;;;;4986799;28;19926;-86
2022/10/23 04:20:15;;;;;;;;;;;;;;;;;;4986252;28;19929;-87
2022/10/23 04:22:47;;;;;;;;;;;;;;;;;;4977591;28;19926;-85
2022/10/23 04:25:15;;;;;;;;;;;;;;;;;;4971644;28;19922;-87
2022/10/23 04:27:47;;;;;;;;;;;;;;;;;;4983610;28;19933;-84
2022/10/23 04:30:20;;;;;;;;;;;;;;;;;;4971853;28;19922;-87
2022/10/23 04:32:53;;;;;;;;;;;;;;;;;;4988040;28;20334;-87
2022/10/23 04:35:20;;;;;;;;;;;;;;;;;;4990352;28;19930;-87
2022/10/23 04:37:48;;;;;;;;;;;;;;;;;;4972069;28;19926;-86
2022/10/23 04:40:22;;;;;;;;;;;;;;;;;;4970819;28;19922;-87
2022/10/23 04:42:54;;;;;;;;;;;;;;;;;;4972314;28;19922;-87
2022/10/23 04:45:22;;;;;;;;;;;;;;;;;;4970170;28;19929;-88
2022/10/23 04:47:49;;;;;;;;;;;;;;;;;;4969277;28;19926;-86
2022/10/23 04:50:17;;;;;;;;;;;;;;;;;;4975190;28;19922;-87
2022/10/23 04:53:07;;;;;;;;;;;;;;;;;;4970890;28;20402;-86
2022/10/23 04:56:11;;;;;;;;;;;;;;;;;;4987795;28;19934;-87
2022/10/23 04:58:49;;;;;;;;;;;;;;;;;;4985114;28;19929;-89
2022/10/23 05:01:16;;;;;;;;;;;;;;;;;;4987893;28;19929;-86
2022/10/23 05:03:49;;;;;;;;;;;;;;;;;;4986936;28;19921;-87
2022/10/23 05:06:17;;;;;;;;;;;;;;;;;;4970271;28;19922;-88
2022/10/23 05:09:09;;;;;;;;;;;;;;;;;;4989088;28;19922;-88
2022/10/23 05:11:57;;;;;;;;;;;;;;;;;;4970491;28;19929;-87
2022/10/23 05:14:30;;;;;;;;;;;;;;;;;;4971281;28;19922;-88
2022/10/23 05:16:57;;;;;;;;;;;;;;;;;;4968766;28;19929;-88
2022/10/23 05:19:25;;;;;;;;;;;;;;;;;;4970914;28;19952;-86
2022/10/23 05:21:57;;;;;;;;;;;;;;;;;;4969808;28;19922;-88
2022/10/23 05:24:27;;;;;;;;;;;;;;;;;;4985631;28;19926;-86
2022/10/23 05:27:01;;;;;;;;;;;;;;;;;;4972395;28;20298;-87
2022/10/23 05:29:37;;;;;;;;;;;;;;;;;;4973685;28;19922;-86
2022/10/23 05:32:10;;;;;;;;;;;;;;;;;;4964859;28;19922;-87
2022/10/23 05:34:43;;;;;;;;;;;;;;;;;;4974393;28;20214;-86
2022/10/23 05:37:11;;;;;;;;;;;;;;;;;;4983896;28;19928;-87
2022/10/23 05:39:39;;;;;;;;;;;;;;;;;;4972709;28;19922;-86
2022/10/23 05:42:11;;;;;;;;;;;;;;;;;;4974223;28;19932;-86
2022/10/23 05:44:40;;;;;;;;;;;;;;;;;;4972047;28;19922;-84
2022/10/23 05:47:17;;;;;;;;;;;;;;;;;;4973613;28;19922;-87
2022/10/23 05:50:07;;;;;;;;;;;;;;;;;;4969291;28;19929;-87
2022/10/23 05:52:59;;;;;;;;;;;;;;;;;;4973771;28;19933;-85
2022/10/23 05:55:46;;;;;;;;;;;;;;;;;;4967954;28;19952;-85
2022/10/23 05:58:38;;;;;;;;;;;;;;;;;;4971970;28;19929;-87
2022/10/23 06:01:25;;;;;;;;;;;;;;;;;;4970163;28;19922;-85
2022/10/23 06:04:03;;;;;;;;;;;;;;;;;;4969671;28;19933;-85
2022/10/23 06:07:08;;;;;;;;;;;;;;;;;;4939114;28;19941;-84
2022/10/23 06:09:43;;;;;;;;;;;;;;;;;;4969216;28;20298;-87
2022/10/23 06:12:15;;;;;;;;;;;;;;;;;;4970271;28;19929;-85
2022/10/23 06:14:50;;;;;;;;;;;;;;;;;;4965816;28;19933;-85
2022/10/23 06:17:17;;;;;;;;;;;;;;;;;;4961894;28;20283;-89
2022/10/23 06:19:46;;;;;;;;;;;;;;;;;;4983988;28;19937;-84
2022/10/23 06:22:19;;;;;;;;;;;;;;;;;;4969779;28;19922;-85
2022/10/23 06:25:01;;;;;;;;;;;;;;;;;;4970580;28;19929;-88
2022/10/23 06:27:29;;;;;;;;;;;;;;;;;;4969946;28;19945;-85
2022/10/23 06:29:56;;;;;;;;;;;;;;;;;;4971469;28;19933;-88
2022/10/23 06:32:29;;;;;;;;;;;;;;;;;;4969441;28;19933;-86
2022/10/23 06:35:14;;;;;;;;;;;;;;;;;;4980391;28;19922;-87
2022/10/23 06:37:42;;;;;;;;;;;;;;;;;;4970092;28;19926;-86
2022/10/23 06:40:17;;;;;;;;;;;;;;;;;;4968803;28;19930;-85
2022/10/23 06:42:58;;;;;;;;;;;;;;;;;;4969672;28;19933;-86
2022/10/23 06:45:48;;;;;;;;;;;;;;;;;;4970747;28;19933;-87
2022/10/23 06:48:16;;;;;;;;;;;;;;;;;;4968452;28;19930;-84
2022/10/23 06:50:57;;;;;;;;;;;;;;;;;;4961561;28;20371;-84
2022/10/23 06:53:34;;;;;;;;;;;;;;;;;;4955598;28;19930;-84
2022/10/23 06:56:28;;;;;;;;;;;;;;;;;;4949285;28;20025;-84
2022/10/23 06:59:01;;;;;;;;;;;;;;;;;;4952438;28;20619;-82
2022/10/23 07:01:29;;;;;;;;;;;;;;;;;;4963655;28;19929;-85
2022/10/23 07:04:02;;;;;;;;;;;;;;;;;;4955415;28;21445;-85
2022/10/23 07:06:29;;;;;;;;;;;;;;;;;;4967135;28;19929;-83
2022/10/23 07:08:57;;;;;;;;;;;;;;;;;;4958272;28;19930;-84
2022/10/23 07:11:56;;;;;;;;;;;;;;;;;;4951902;28;21735;-82
2022/10/23 07:14:38;;;;;;;;;;;;;;;;;;4953018;28;19929;-82
2022/10/23 07:17:11;;;;;;;;;;;;;;;;;;4973825;28;19926;-88
2022/10/23 07:19:38;;;;;;;;;;;;;;;;;;4960119;28;19953;-85
2022/10/23 07:22:12;;;;;;;;;;;;;;;;;;4961112;28;20310;-84
2022/10/23 07:24:54;;;;;;;;;;;;;;;;;;4957232;28;20298;-82
2022/10/23 07:27:30;;;;;;;;;;;;;;;;;;4949534;28;19930;-82
2022/10/23 07:30:01;;;;;;;;;;;;;;;;;;4958740;28;19937;-85
2022/10/23 07:32:40;;;;;;;;;;;;;;;;;;4950529;28;19926;-83
2022/10/23 07:35:26;;;;;;;;;;;;;;;;;;4956153;28;19973;-83
2022/10/23 07:37:58;;;;;;;;;;;;;;;;;;4943934;28;20439;-82
2022/10/23 07:40:34;;;;;;;;;;;;;;;;;;4958388;28;19930;-85
2022/10/23 07:43:09;;;;;;;;;;;;;;;;;;4950976;28;20745;-84
2022/10/23 07:45:37;;;;;;;;;;;;;;;;;;4970255;28;19930;-83
2022/10/23 07:48:13;;;;;;;;;;;;;;;;;;4954785;28;19930;-83
2022/10/23 07:50:59;;;;;;;;;;;;;;;;;;4947767;28;20497;-83
2022/10/23 07:53:40;;;;;;;;;;;;;;;;;;4966328;28;20441;-84
2022/10/23 07:56:50;;;;;;;;;;;;;;;;;;4957797;28;19930;-83
2022/10/23 07:59:28;;;;;;;;;;;;;;;;;;4948475;28;19930;-84
2022/10/23 08:02:00;;;;;;;;;;;;;;;;;;4960762;28;20038;-85
2022/10/23 08:04:32;;;;;;;;;;;;;;;;;;4962359;28;19953;-83
2022/10/23 08:07:14;;;;;;;;;;;;;;;;;;4941656;28;20350;-83
2022/10/23 08:09:44;;;;;;;;;;;;;;;;;;4957591;28;19930;-85
2022/10/23 08:12:11;;;;;;;;;;;;;;;;;;4961333;28;19933;-82
2022/10/23 08:14:39;;;;;;;;;;;;;;;;;;4942666;28;20255;-85
2022/10/23 08:17:12;;;;;;;;;;;;;;;;;;4939946;28;19930;-82
2022/10/23 08:19:59;;;;;;;;;;;;;;;;;;4949863;28;19952;-83
2022/10/23 08:22:38;;;;;;;;;;;;;;;;;;4951048;28;20154;-82
2022/10/23 08:25:14;;;;;;;;;;;;;;;;;;4953892;28;20305;-79
2022/10/23 08:27:42;;;;;;;;;;;;;;;;;;4967269;28;20608;-82
2022/10/23 08:30:15;;;;;;;;;;;;;;;;;;4954173;28;20382;-84
2022/10/23 08:32:48;;;;;;;;;;;;;;;;;;4962594;28;19936;-81
2022/10/23 08:35:21;;;;;;;;;;;;;;;;;;4971381;28;20006;-84
2022/10/23 08:37:48;;;;;;;;;;;;;;;;;;4950915;28;20444;-81
2022/10/23 08:40:21;;;;;;;;;;;;;;;;;;4951220;28;20610;-83
2022/10/23 08:43:14;;;;;;;;;;;;;;;;;;4927919;28;19930;-82
2022/10/23 08:45:55;;;;;;;;;;;;;;;;;;4966972;28;20963;-83
2022/10/23 08:48:48;;;;;;;;;;;;;;;;;;4956483;28;20282;-84
2022/10/23 08:51:39;;;;;;;;;;;;;;;;;;4945808;28;20294;-82
2022/10/23 08:54:07;;;;;;;;;;;;;;;;;;4954378;28;19930;-85
2022/10/23 08:56:34;;;;;;;;;;;;;;;;;;4955289;28;19937;-81
2022/10/23 08:59:04;;;;;;;;;;;;;;;;;;4968571;28;19937;-86
2022/10/23 09:01:36;;;;;;;;;;;;;;;;;;4953767;28;19930;-86
2022/10/23 09:04:09;;;;;;;;;;;;;;;;;;4962174;28;19937;-86
2022/10/23 09:06:37;;;;;;;;;;;;;;;;;;4944510;28;19929;-85
2022/10/23 09:09:04;;;;;;;;;;;;;;;;;;4946836;28;19936;-81
2022/10/23 09:11:32;;;;;;;;;;;;;;;;;;4964338;28;20302;-82
2022/10/23 09:13:59;;;;;;;;;;;;;;;;;;4947161;28;19937;-89
2022/10/23 09:16:32;;;;;;;;;;;;;;;;;;4959403;28;20287;-85
2022/10/23 09:18:59;;;;;;;;;;;;;;;;;;4955325;28;19936;-81
2022/10/23 09:21:32;;;;;;;;;;;;;;;;;;4945630;28;19930;-83
2022/10/23 09:24:04;;;;;;;;;;;;;;;;;;4951862;28;19937;-85
2022/10/23 09:26:32;;;;;;;;;;;;;;;;;;4947266;28;19959;-82
2022/10/23 09:29:00;;;;;;;;;;;;;;;;;;4948156;28;19969;-81
2022/10/23 09:31:27;;;;;;;;;;;;;;;;;;4945359;28;19922;-84
2022/10/23 09:33:55;;;;;;;;;;;;;;;;;;4955619;28;19930;-84
2022/10/23 09:36:28;;;;;;;;;;;;;;;;;;4954069;28;19930;-84
2022/10/23 09:39:00;;;;;;;;;;;;;;;;;;4953573;28;19929;-83
2022/10/23 09:41:28;;;;;;;;;;;;;;;;;;4955360;28;19937;-83
2022/10/23 09:44:00;;;;;;;;;;;;;;;;;;4953262;28;19930;-85
2022/10/23 09:46:28;;;;;;;;;;;;;;;;;;4947188;28;20644;-84
2022/10/23 09:49:00;;;;;;;;;;;;;;;;;;4958797;28;19937;-82
2022/10/23 09:51:33;;;;;;;;;;;;;;;;;;4943412;28;19929;-83
2022/10/23 09:54:05;;;;;;;;;;;;;;;;;;4965082;28;20077;-85
2022/10/23 09:56:38;;;;;;;;;;;;;;;;;;4952002;28;19933;-86
2022/10/23 09:59:10;;;;;;;;;;;;;;;;;;4966393;28;19925;-86
2022/10/23 10:01:38;;;;;;;;;;;;;;;;;;4947412;28;19930;-84
2022/10/23 10:04:34;;;;;;;;;;;;;;;;;;4946873;28;19929;-84
2022/10/23 10:07:07;;;;;;;;;;;;;;;;;;4959991;28;19922;-88
2022/10/23 10:09:35;;;;;;;;;;;;;;;;;;4968162;28;19933;-83
2022/10/23 10:12:07;;;;;;;;;;;;;;;;;;4960995;28;19926;-81
2022/10/23 10:14:40;;;;;;;;;;;;;;;;;;4955895;28;20150;-83
2022/10/23 10:17:08;;;;;;;;;;;;;;;;;;4972738;28;19937;-82
2022/10/23 10:19:41;;;;;;;;;;;;;;;;;;4961037;28;19941;-88
2022/10/23 10:22:09;;;;;;;;;;;;;;;;;;4948007;28;20320;-88
2022/10/23 10:24:41;;;;;;;;;;;;;;;;;;4960933;28;19926;-81
2022/10/23 10:27:09;;;;;;;;;;;;;;;;;;4965782;28;20010;-88
2022/10/23 10:29:41;;;;;;;;;;;;;;;;;;4964210;28;19930;-83
2022/10/23 10:32:09;;;;;;;;;;;;;;;;;;4947620;28;19938;-86
2022/10/23 10:34:41;;;;;;;;;;;;;;;;;;4952902;28;19936;-85
2022/10/23 10:37:14;;;;;;;;;;;;;;;;;;4955516;28;20142;-84
2022/10/23 10:39:46;;;;;;;;;;;;;;;;;;4954100;28;20102;-82
2022/10/23 10:42:14;;;;;;;;;;;;;;;;;;4947101;28;19965;-85
2022/10/23 10:44:46;;;;;;;;;;;;;;;;;;4945745;28;20202;-83
2022/10/23 10:47:19;;;;;;;;;;;;;;;;;;4946950;28;19953;-81
2022/10/23 10:49:47;;;;;;;;;;;;;;;;;;4944977;28;19934;-81
2022/10/23 10:52:32;;;;;;;;;;;;;;;;;;4961784;28;19929;-84
2022/10/23 10:54:59;;;;;;;;;;;;;;;;;;4953406;28;19929;-81
2022/10/23 10:57:27;;;;;;;;;;;;;;;;;;4958812;28;20110;-82
2022/10/23 10:59:59;;;;;;;;;;;;;;;;;;4966159;28;19934;-82
2022/10/23 11:02:32;;;;;;;;;;;;;;;;;;4973989;28;19936;-83
2022/10/23 11:04:59;;;;;;;;;;;;;;;;;;4956085;28;19941;-84
2022/10/23 11:07:32;;;;;;;;;;;;;;;;;;4965820;28;19937;-80
2022/10/23 11:10:04;;;;;;;;;;;;;;;;;;4957722;28;19929;-87
2022/10/23 11:12:32;;;;;;;;;;;;;;;;;;4962528;28;20566;-82
2022/10/23 11:14:59;;;;;;;;;;;;;;;;;;4964493;28;19930;-84
2022/10/23 11:17:32;;;;;;;;;;;;;;;;;;4957331;28;19937;-85
2022/10/23 11:20:04;;;;;;;;;;;;;;;;;;4960488;28;19929;-80
2022/10/23 11:22:32;;;;;;;;;;;;;;;;;;4972764;28;19930;-84
2022/10/23 11:24:59;;;;;;;;;;;;;;;;;;4975516;28;19937;-84
2022/10/23 11:27:27;;;;;;;;;;;;;;;;;;4973616;28;20579;-85
2022/10/23 11:29:59;;;;;;;;;;;;;;;;;;4963356;28;20799;-85
2022/10/23 11:32:27;;;;;;;;;;;;;;;;;;4955568;28;19941;-83
2022/10/23 11:34:59;;;;;;;;;;;;;;;;;;4976374;28;19933;-81
2022/10/23 11:37:32;;;;;;;;;;;;;;;;;;4956418;28;19929;-84
2022/10/23 11:39:59;;;;;;;;;;;;;;;;;;4958249;28;19930;-84
2022/10/23 11:42:27;;;;;;;;;;;;;;;;;;4972216;28;19937;-82
2022/10/23 11:44:59;;;;;;;;;;;;;;;;;;4953995;28;19932;-85
2022/10/23 11:47:27;;;;;;;;;;;;;;;;;;4958951;28;19942;-81
2022/10/23 11:49:59;;;;;;;;;;;;;;;;;;4960298;28;19937;-84
2022/10/23 11:52:32;;;;;;;;;;;;;;;;;;4951951;28;19930;-83
2022/10/23 11:55:04;;;;;;;;;;;;;;;;;;4954221;28;19936;-82
2022/10/23 11:57:37;;;;;;;;;;;;;;;;;;4961591;28;20848;-90
2022/10/23 12:00:09;;;;;;;;;;;;;;;;;;4969000;28;19949;-85
2022/10/23 12:02:42;;;;;;;;;;;;;;;;;;4950167;28;19922;-84
2022/10/23 12:05:09;;;;;;;;;;;;;;;;;;4957882;28;19941;-79
2022/10/23 12:07:42;;;;;;;;;;;;;;;;;;4972882;28;20968;-83
2022/10/23 12:10:14;;;;;;;;;;;;;;;;;;4965892;28;19929;-80
2022/10/23 12:12:47;;;;;;;;;;;;;;;;;;4968997;28;19936;-86
2022/10/23 12:15:14;;;;;;;;;;;;;;;;;;4954273;28;19930;-84
2022/10/23 12:17:42;;;;;;;;;;;;;;;;;;4967830;28;19937;-85
2022/10/23 12:20:09;;;;;;;;;;;;;;;;;;4951017;28;19957;-84
2022/10/23 12:22:42;;;;;;;;;;;;;;;;;;4958409;28;20607;-84
2022/10/23 12:25:14;;;;;;;;;;;;;;;;;;4959468;28;20409;-87
2022/10/23 12:27:47;;;;;;;;;;;;;;;;;;4973234;28;20507;-85
2022/10/23 12:30:15;;;;;;;;;;;;;;;;;;4962726;28;19930;-80
2022/10/23 12:32:43;;;;;;;;;;;;;;;;;;4960878;28;19937;-83
2022/10/23 12:35:15;;;;;;;;;;;;;;;;;;4961220;28;20011;-86
2022/10/23 12:37:50;;;;;;;;;;;;;;;;;;4968483;28;19930;-82
2022/10/23 12:40:28;;;;;;;;;;;;;;;;;;4954162;28;19926;-85
2022/10/23 12:43:00;;;;;;;;;;;;;;;;;;4965149;28;19926;-87
2022/10/23 12:45:33;;;;;;;;;;;;;;;;;;4968207;28;19929;-84
2022/10/23 12:48:01;;;;;;;;;;;;;;;;;;4961276;28;19949;-80
2022/10/23 12:50:33;;;;;;;;;;;;;;;;;;4951166;28;19930;-80
2022/10/23 12:53:01;;;;;;;;;;;;;;;;;;4960952;28;19930;-81
2022/10/23 12:55:32;;;;;;;;;;;;;;;;;;4958905;28;19945;-86
2022/10/23 12:58:04;;;;;;;;;;;;;;;;;;4966682;28;20294;-80
2022/10/23 13:00:32;;;;;;;;;;;;;;;;;;4956988;28;19934;-79
2022/10/23 13:02:59;;;;;;;;;;;;;;;;;;4959759;28;19922;-90
2022/10/23 13:05:27;;;;;;;;;;;;;;;;;;4958718;28;19930;-85
2022/10/23 13:07:59;;;;;;;;;;;;;;;;;;4958118;28;19930;-86
2022/10/23 13:10:43;;;;;;;;;;;;;;;;;;4962074;28;19937;-83
2022/10/23 13:13:10;;;;;;;;;;;;;;;;;;4958358;28;21066;-82
2022/10/23 13:15:38;;;;;;;;;;;;;;;;;;4972288;28;19930;-86
2022/10/23 13:18:12;;;;;;;;;;;;;;;;;;4966888;28;19929;-85
2022/10/23 13:20:40;;;;;;;;;;;;;;;;;;4966307;28;19922;-81
2022/10/23 13:23:07;;;;;;;;;;;;;;;;;;4967982;28;19930;-80
2022/10/23 13:25:40;;;;;;;;;;;;;;;;;;4958767;28;19937;-86
2022/10/23 13:28:07;;;;;;;;;;;;;;;;;;4956128;28;19930;-82
2022/10/23 13:30:41;;;;;;;;;;;;;;;;;;4961768;28;19925;-87
2022/10/23 13:33:09;;;;;;;;;;;;;;;;;;4955935;28;19936;-80
2022/10/23 13:35:37;;;;;;;;;;;;;;;;;;4955419;28;19929;-81
2022/10/23 13:38:04;;;;;;;;;;;;;;;;;;4960480;28;19952;-82
2022/10/23 13:40:36;;;;;;;;;;;;;;;;;;4964984;28;19930;-87
2022/10/23 13:43:09;;;;;;;;;;;;;;;;;;4955772;28;19926;-81
2022/10/23 13:45:36;;;;;;;;;;;;;;;;;;4976556;28;19930;-83
2022/10/23 13:48:04;;;;;;;;;;;;;;;;;;4964953;28;20186;-89
2022/10/23 13:50:31;;;;;;;;;;;;;;;;;;4970363;28;19926;-88
2022/10/23 13:52:59;;;;;;;;;;;;;;;;;;4959762;28;19930;-83
2022/10/23 13:55:32;;;;;;;;;;;;;;;;;;4949873;28;19926;-81
2022/10/23 13:57:59;;;;;;;;;;;;;;;;;;4963111;28;19925;-83
2022/10/23 14:00:27;;;;;;;;;;;;;;;;;;4964953;28;19930;-83
2022/10/23 14:02:59;;;;;;;;;;;;;;;;;;4950547;28;19930;-83
2022/10/23 14:05:27;;;;;;;;;;;;;;;;;;4951548;28;20418;-81
2022/10/23 14:07:59;;;;;;;;;;;;;;;;;;4957749;28;19925;-81
2022/10/23 14:10:27;;;;;;;;;;;;;;;;;;4952329;28;20010;-87
2022/10/23 14:12:54;;;;;;;;;;;;;;;;;;4950750;28;20293;-82
2022/10/23 14:15:27;;;;;;;;;;;;;;;;;;4951872;28;21572;-88
2022/10/23 14:17:54;;;;;;;;;;;;;;;;;;4957679;28;20615;-81
2022/10/23 14:20:27;;;;;;;;;;;;;;;;;;4956632;28;19937;-82
2022/10/23 14:22:59;;;;;;;;;;;;;;;;;;4954900;28;19951;-85
2022/10/23 14:25:27;;;;;;;;;;;;;;;;;;4951057;28;20394;-85
2022/10/23 14:27:54;;;;;;;;;;;;;;;;;;4960406;28;20387;-83
2022/10/23 14:30:27;;;;;;;;;;;;;;;;;;4967272;28;20481;-80
2022/10/23 14:32:59;;;;;;;;;;;;;;;;;;4950573;28;19945;-88
2022/10/23 14:35:32;;;;;;;;;;;;;;;;;;4957064;28;19930;-86
2022/10/23 14:38:04;;;;;;;;;;;;;;;;;;4956560;28;19937;-84
2022/10/23 14:40:37;;;;;;;;;;;;;;;;;;4947276;28;19930;-85
2022/10/23 14:43:04;;;;;;;;;;;;;;;;;;4957661;28;19941;-85
2022/10/23 14:45:32;;;;;;;;;;;;;;;;;;4954164;28;19930;-81
2022/10/23 14:48:01;;;;;;;;;;;;;;;;;;4956198;28;20770;-81
2022/10/23 14:50:33;;;;;;;;;;;;;;;;;;4957898;28;19984;-83
2022/10/23 14:53:01;;;;;;;;;;;;;;;;;;4959452;28;19930;-81
2022/10/23 14:55:33;;;;;;;;;;;;;;;;;;4958398;28;19945;-84
2022/10/23 14:58:01;;;;;;;;;;;;;;;;;;4954978;28;19930;-81
2022/10/23 15:00:29;;;;;;;;;;;;;;;;;;4956761;28;19930;-86
2022/10/23 15:03:01;;;;;;;;;;;;;;;;;;4956530;28;19937;-84
2022/10/23 15:05:34;;;;;;;;;;;;;;;;;;4962620;28;19930;-85
2022/10/23 15:08:06;;;;;;;;;;;;;;;;;;4958568;28;19937;-87
2022/10/23 15:10:34;;;;;;;;;;;;;;;;;;4954266;28;19937;-84
2022/10/23 15:13:06;;;;;;;;;;;;;;;;;;4952787;28;19930;-85
2022/10/23 15:15:39;;;;;;;;;;;;;;;;;;4954536;28;19930;-84
2022/10/23 15:18:11;;;;;;;;;;;;;;;;;;4961574;28;19929;-85
2022/10/23 15:20:39;;;;;;;;;;;;;;;;;;4967690;28;20052;-87
2022/10/23 15:23:11;;;;;;;;;;;;;;;;;;4951448;28;19944;-90
2022/10/23 15:25:44;;;;;;;;;;;;;;;;;;4953558;28;19929;-84
2022/10/23 15:28:16;;;;;;;;;;;;;;;;;;4949823;28;19930;-83
2022/10/23 15:30:49;;;;;;;;;;;;;;;;;;4960604;28;19941;-83
2022/10/23 15:33:21;;;;;;;;;;;;;;;;;;4951371;28;20413;-89
2022/10/23 15:35:49;;;;;;;;;;;;;;;;;;4959158;28;19930;-85
2022/10/23 15:38:21;;;;;;;;;;;;;;;;;;4967679;28;20498;-87
2022/10/23 15:40:49;;;;;;;;;;;;;;;;;;4964789;28;20377;-81
2022/10/23 15:43:16;;;;;;;;;;;;;;;;;;4964820;28;20611;-87
2022/10/23 15:45:44;;;;;;;;;;;;;;;;;;4964823;28;20544;-81
2022/10/23 15:48:16;;;;;;;;;;;;;;;;;;4965662;28;19959;-87
2022/10/23 15:50:49;;;;;;;;;;;;;;;;;;4965016;28;20816;-85
2022/10/23 15:53:21;;;;;;;;;;;;;;;;;;4979853;28;19937;-87
2022/10/23 15:55:54;;;;;;;;;;;;;;;;;;4950621;28;19930;-80
2022/10/23 15:58:27;;;;;;;;;;;;;;;;;;4951337;28;19934;-81
2022/10/23 16:00:54;;;;;;;;;;;;;;;;;;4959734;28;19929;-85
2022/10/23 16:03:22;;;;;;;;;;;;;;;;;;4958143;28;19930;-89
2022/10/23 16:05:49;;;;;;;;;;;;;;;;;;4957116;28;19929;-84
2022/10/23 16:08:22;;;;;;;;;;;;;;;;;;4966633;28;21157;-82
2022/10/23 16:10:55;;;;;;;;;;;;;;;;;;4958521;28;19936;-84
2022/10/23 16:13:22;;;;;;;;;;;;;;;;;;4972260;28;19930;-82
2022/10/23 16:15:51;;;;;;;;;;;;;;;;;;4956699;28;19930;-84
2022/10/23 16:18:23;;;;;;;;;;;;;;;;;;4963787;28;19995;-83
2022/10/23 16:20:53;;;;;;;;;;;;;;;;;;4956745;28;19929;-83
2022/10/23 16:23:27;;;;;;;;;;;;;;;;;;4972123;28;20270;-84
2022/10/23 16:25:54;;;;;;;;;;;;;;;;;;4957470;28;19937;-85
2022/10/23 16:28:27;;;;;;;;;;;;;;;;;;4967224;28;19925;-82
2022/10/23 16:30:54;;;;;;;;;;;;;;;;;;4971016;28;19937;-86
2022/10/23 16:33:22;;;;;;;;;;;;;;;;;;4955546;28;19926;-82
2022/10/23 16:35:54;;;;;;;;;;;;;;;;;;4956881;28;19925;-87
2022/10/23 16:38:22;;;;;;;;;;;;;;;;;;4962234;28;19937;-85
2022/10/23 16:40:55;;;;;;;;;;;;;;;;;;4950926;28;20331;-85
2022/10/23 16:43:38;;;;;;;;;;;;;;;;;;4951345;28;19929;-85
2022/10/23 16:46:30;;;;;;;;;;;;;;;;;;4949794;28;19933;-85
2022/10/23 16:49:03;;;;;;;;;;;;;;;;;;4958559;28;19974;-81
2022/10/23 16:51:35;;;;;;;;;;;;;;;;;;4963230;28;19922;-84
2022/10/23 16:54:08;;;;;;;;;;;;;;;;;;4950566;28;19941;-87
2022/10/23 16:56:35;;;;;;;;;;;;;;;;;;4963270;28;19926;-86
2022/10/23 16:59:03;;;;;;;;;;;;;;;;;;4954727;28;19929;-83
2022/10/23 17:01:35;;;;;;;;;;;;;;;;;;4955628;28;20306;-87
2022/10/23 17:04:08;;;;;;;;;;;;;;;;;;4960051;28;21326;-81
2022/10/23 17:06:35;;;;;;;;;;;;;;;;;;4962009;28;19930;-84
2022/10/23 17:09:03;;;;;;;;;;;;;;;;;;4960917;28;19930;-83
2022/10/23 17:11:35;;;;;;;;;;;;;;;;;;4959266;28;19926;-86
2022/10/23 17:14:08;;;;;;;;;;;;;;;;;;4957071;28;19938;-87
2022/10/23 17:16:40;;;;;;;;;;;;;;;;;;4959802;28;19930;-81
2022/10/23 17:19:08;;;;;;;;;;;;;;;;;;4967783;28;19930;-82